Sao Luis do Paraitinga, Brazil
Current Conditions -  °F | °C
As of 1:00 AM on Thursday 23 Oct 2014 (Local Time) from SBSJ Reporting Station
Overcast Overcast  
Wind Chill: 66°   Ceiling: 2000
Heat Index: 66°   Visibility: 6mi
Dew Point: 55°   Wind: 12mph
Humidity: 68%   Direction: 120°ESE
Pressure: 30.21"   Gusts: NA
Location:  23.23°S, 45.32°W
Report Text: SBSJ 230300Z 12010KT 9999 OVC020 19/13 Q1023
Loading
Personal Weather Stations






























Interactive Weather Map
Tropical Storm Tracking
New forecast layout! Learn more

10-Day Weather Forecast

Advertisements
Track Severe Weather on mobile